sensor_id;sensor_type;location;lat;lon;timestamp;P1;durP1;ratioP1;P2;durP2;ratioP2
36691;SDS011;22678;52.052;4.242;2024-02-14T00:02:06;11.93;;;7.27;;
36691;SDS011;22678;52.052;4.242;2024-02-14T00:04:31;12.68;;;7.53;;
36691;SDS011;22678;52.052;4.242;2024-02-14T00:06:57;11.68;;;6.40;;
36691;SDS011;22678;52.052;4.242;2024-02-14T00:09:22;15.43;;;7.15;;
36691;SDS011;22678;52.052;4.242;2024-02-14T00:11:47;13.38;;;7.53;;
36691;SDS011;22678;52.052;4.242;2024-02-14T00:14:13;11.40;;;7.10;;
36691;SDS011;22678;52.052;4.242;2024-02-14T00:16:38;12.27;;;7.07;;
36691;SDS011;22678;52.052;4.242;2024-02-14T00:19:04;8.98;;;5.43;;
36691;SDS011;22678;52.052;4.242;2024-02-14T00:21:30;11.60;;;8.15;;
36691;SDS011;22678;52.052;4.242;2024-02-14T00:23:56;10.80;;;7.05;;
36691;SDS011;22678;52.052;4.242;2024-02-14T00:26:23;10.23;;;6.35;;
36691;SDS011;22678;52.052;4.242;2024-02-14T00:28:49;11.80;;;8.40;;
36691;SDS011;22678;52.052;4.242;2024-02-14T00:31:14;13.73;;;6.95;;
36691;SDS011;22678;52.052;4.242;2024-02-14T00:33:40;12.07;;;6.82;;
36691;SDS011;22678;52.052;4.242;2024-02-14T00:36:06;10.68;;;6.13;;
36691;SDS011;22678;52.052;4.242;2024-02-14T00:38:31;11.15;;;5.47;;
36691;SDS011;22678;52.052;4.242;2024-02-14T00:40:57;10.23;;;6.05;;
36691;SDS011;22678;52.052;4.242;2024-02-14T00:43:22;15.55;;;6.85;;
36691;SDS011;22678;52.052;4.242;2024-02-14T00:45:48;14.60;;;6.57;;
36691;SDS011;22678;52.052;4.242;2024-02-14T00:48:13;11.00;;;6.88;;
36691;SDS011;22678;52.052;4.242;2024-02-14T00:50:38;12.30;;;5.97;;
36691;SDS011;22678;52.052;4.242;2024-02-14T00:53:04;13.25;;;6.18;;
36691;SDS011;22678;52.052;4.242;2024-02-14T00:55:29;7.38;;;5.10;;
36691;SDS011;22678;52.052;4.242;2024-02-14T00:57:55;11.88;;;5.80;;
36691;SDS011;22678;52.052;4.242;2024-02-14T01:00:20;9.32;;;6.28;;
36691;SDS011;22678;52.052;4.242;2024-02-14T01:02:46;15.32;;;7.75;;
36691;SDS011;22678;52.052;4.242;2024-02-14T01:05:11;7.88;;;5.28;;
36691;SDS011;22678;52.052;4.242;2024-02-14T01:07:36;11.60;;;5.45;;
36691;SDS011;22678;52.052;4.242;2024-02-14T01:10:02;11.07;;;5.30;;
36691;SDS011;22678;52.052;4.242;2024-02-14T01:12:28;11.48;;;4.97;;
36691;SDS011;22678;52.052;4.242;2024-02-14T01:14:56;7.95;;;5.10;;
36691;SDS011;22678;52.052;4.242;2024-02-14T01:17:22;7.93;;;4.13;;
36691;SDS011;22678;52.052;4.242;2024-02-14T01:19:47;7.70;;;4.20;;
36691;SDS011;22678;52.052;4.242;2024-02-14T01:22:13;12.73;;;5.05;;
36691;SDS011;22678;52.052;4.242;2024-02-14T01:24:41;7.82;;;3.88;;
36691;SDS011;22678;52.052;4.242;2024-02-14T01:27:10;10.18;;;4.85;;
36691;SDS011;22678;52.052;4.242;2024-02-14T01:29:35;16.67;;;6.88;;
36691;SDS011;22678;52.052;4.242;2024-02-14T01:32:00;9.57;;;4.78;;
36691;SDS011;22678;52.052;4.242;2024-02-14T01:34:26;12.68;;;4.75;;
36691;SDS011;22678;52.052;4.242;2024-02-14T01:36:53;13.65;;;4.97;;
36691;SDS011;22678;52.052;4.242;2024-02-14T01:39:19;7.53;;;4.32;;
36691;SDS011;22678;52.052;4.242;2024-02-14T01:41:47;9.40;;;5.45;;
36691;SDS011;22678;52.052;4.242;2024-02-14T01:44:14;8.27;;;4.75;;
36691;SDS011;22678;52.052;4.242;2024-02-14T01:46:43;7.47;;;4.32;;
36691;SDS011;22678;52.052;4.242;2024-02-14T01:49:09;11.00;;;3.53;;
36691;SDS011;22678;52.052;4.242;2024-02-14T01:51:36;9.95;;;4.55;;
36691;SDS011;22678;52.052;4.242;2024-02-14T01:54:03;11.85;;;4.38;;
36691;SDS011;22678;52.052;4.242;2024-02-14T01:56:29;10.50;;;4.45;;
36691;SDS011;22678;52.052;4.242;2024-02-14T01:58:56;9.95;;;5.70;;
36691;SDS011;22678;52.052;4.242;2024-02-14T02:01:21;8.40;;;5.47;;
36691;SDS011;22678;52.052;4.242;2024-02-14T02:03:49;12.52;;;4.70;;
36691;SDS011;22678;52.052;4.242;2024-02-14T02:06:14;12.45;;;6.75;;
36691;SDS011;22678;52.052;4.242;2024-02-14T02:08:42;13.88;;;4.72;;
36691;SDS011;22678;52.052;4.242;2024-02-14T02:11:08;15.20;;;5.40;;
36691;SDS011;22678;52.052;4.242;2024-02-14T02:13:33;12.30;;;5.78;;
36691;SDS011;22678;52.052;4.242;2024-02-14T02:15:59;17.33;;;4.65;;
36691;SDS011;22678;52.052;4.242;2024-02-14T02:18:29;11.93;;;6.05;;
36691;SDS011;22678;52.052;4.242;2024-02-14T02:20:55;15.85;;;7.88;;
36691;SDS011;22678;52.052;4.242;2024-02-14T02:23:21;12.65;;;5.93;;
36691;SDS011;22678;52.052;4.242;2024-02-14T02:25:46;12.45;;;5.53;;
36691;SDS011;22678;52.052;4.242;2024-02-14T02:28:12;12.45;;;5.45;;
36691;SDS011;22678;52.052;4.242;2024-02-14T02:30:37;11.95;;;5.90;;
36691;SDS011;22678;52.052;4.242;2024-02-14T02:33:03;12.95;;;6.18;;
36691;SDS011;22678;52.052;4.242;2024-02-14T02:35:30;11.35;;;4.95;;
36691;SDS011;22678;52.052;4.242;2024-02-14T02:37:55;16.83;;;6.35;;
36691;SDS011;22678;52.052;4.242;2024-02-14T02:40:21;15.23;;;7.15;;
36691;SDS011;22678;52.052;4.242;2024-02-14T02:42:47;12.95;;;5.00;;
36691;SDS011;22678;52.052;4.242;2024-02-14T02:45:13;14.48;;;5.55;;
36691;SDS011;22678;52.052;4.242;2024-02-14T02:47:38;18.10;;;4.85;;
36691;SDS011;22678;52.052;4.242;2024-02-14T02:50:04;16.00;;;4.75;;
36691;SDS011;22678;52.052;4.242;2024-02-14T02:52:31;14.60;;;4.68;;
36691;SDS011;22678;52.052;4.242;2024-02-14T02:54:56;14.88;;;3.78;;
36691;SDS011;22678;52.052;4.242;2024-02-14T02:57:22;18.27;;;6.18;;
36691;SDS011;22678;52.052;4.242;2024-02-14T02:59:47;21.30;;;4.18;;
36691;SDS011;22678;52.052;4.242;2024-02-14T03:02:14;22.63;;;5.90;;
36691;SDS011;22678;52.052;4.242;2024-02-14T03:04:40;20.33;;;4.82;;
36691;SDS011;22678;52.052;4.242;2024-02-14T03:07:07;19.95;;;5.70;;
36691;SDS011;22678;52.052;4.242;2024-02-14T03:09:34;15.18;;;4.80;;
36691;SDS011;22678;52.052;4.242;2024-02-14T03:12:00;16.67;;;5.20;;
36691;SDS011;22678;52.052;4.242;2024-02-14T03:14:28;12.68;;;5.38;;
36691;SDS011;22678;52.052;4.242;2024-02-14T03:17:00;13.20;;;3.60;;
36691;SDS011;22678;52.052;4.242;2024-02-14T03:19:27;15.93;;;5.97;;
36691;SDS011;22678;52.052;4.242;2024-02-14T03:21:53;20.50;;;6.30;;
36691;SDS011;22678;52.052;4.242;2024-02-14T03:24:19;25.60;;;4.60;;
36691;SDS011;22678;52.052;4.242;2024-02-14T03:26:45;14.27;;;4.28;;
36691;SDS011;22678;52.052;4.242;2024-02-14T03:29:10;22.13;;;4.28;;
36691;SDS011;22678;52.052;4.242;2024-02-14T03:31:35;14.40;;;3.97;;
36691;SDS011;22678;52.052;4.242;2024-02-14T03:34:01;21.15;;;7.15;;
36691;SDS011;22678;52.052;4.242;2024-02-14T03:36:27;22.10;;;4.85;;
36691;SDS011;22678;52.052;4.242;2024-02-14T03:38:55;11.25;;;5.03;;
36691;SDS011;22678;52.052;4.242;2024-02-14T03:41:20;13.63;;;3.58;;
36691;SDS011;22678;52.052;4.242;2024-02-14T03:43:46;16.48;;;4.10;;
36691;SDS011;22678;52.052;4.242;2024-02-14T03:46:11;27.95;;;6.63;;
36691;SDS011;22678;52.052;4.242;2024-02-14T03:48:38;13.63;;;4.03;;
36691;SDS011;22678;52.052;4.242;2024-02-14T03:51:03;23.83;;;6.47;;
36691;SDS011;22678;52.052;4.242;2024-02-14T03:53:29;22.77;;;5.32;;
36691;SDS011;22678;52.052;4.242;2024-02-14T03:55:54;15.55;;;5.28;;
36691;SDS011;22678;52.052;4.242;2024-02-14T03:58:19;16.42;;;4.72;;
36691;SDS011;22678;52.052;4.242;2024-02-14T04:00:51;16.60;;;4.65;;
36691;SDS011;22678;52.052;4.242;2024-02-14T04:03:17;19.65;;;5.80;;
36691;SDS011;22678;52.052;4.242;2024-02-14T04:05:43;16.70;;;4.70;;
36691;SDS011;22678;52.052;4.242;2024-02-14T04:08:09;13.88;;;3.53;;
36691;SDS011;22678;52.052;4.242;2024-02-14T04:10:38;26.20;;;7.07;;
36691;SDS011;22678;52.052;4.242;2024-02-14T04:13:04;29.30;;;4.88;;
36691;SDS011;22678;52.052;4.242;2024-02-14T04:15:30;24.00;;;7.43;;
36691;SDS011;22678;52.052;4.242;2024-02-14T04:17:56;26.17;;;5.50;;
36691;SDS011;22678;52.052;4.242;2024-02-14T04:20:21;18.98;;;5.18;;
36691;SDS011;22678;52.052;4.242;2024-02-14T04:22:46;23.45;;;4.72;;
36691;SDS011;22678;52.052;4.242;2024-02-14T04:25:12;27.10;;;5.53;;
36691;SDS011;22678;52.052;4.242;2024-02-14T04:27:37;22.92;;;5.28;;
36691;SDS011;22678;52.052;4.242;2024-02-14T04:30:04;19.80;;;6.53;;
36691;SDS011;22678;52.052;4.242;2024-02-14T04:32:30;16.05;;;4.65;;
36691;SDS011;22678;52.052;4.242;2024-02-14T04:34:55;14.43;;;5.70;;
36691;SDS011;22678;52.052;4.242;2024-02-14T04:37:21;20.25;;;5.85;;
36691;SDS011;22678;52.052;4.242;2024-02-14T04:39:46;15.00;;;6.05;;
36691;SDS011;22678;52.052;4.242;2024-02-14T04:42:12;35.53;;;7.00;;
36691;SDS011;22678;52.052;4.242;2024-02-14T04:44:37;33.20;;;6.40;;
36691;SDS011;22678;52.052;4.242;2024-02-14T04:47:04;30.85;;;6.43;;
36691;SDS011;22678;52.052;4.242;2024-02-14T04:49:30;20.80;;;6.55;;
36691;SDS011;22678;52.052;4.242;2024-02-14T04:51:55;15.82;;;4.18;;
36691;SDS011;22678;52.052;4.242;2024-02-14T04:54:21;22.83;;;5.00;;
36691;SDS011;22678;52.052;4.242;2024-02-14T04:56:47;16.27;;;4.13;;
36691;SDS011;22678;52.052;4.242;2024-02-14T04:59:12;15.68;;;4.65;;
36691;SDS011;22678;52.052;4.242;2024-02-14T05:01:37;16.52;;;5.05;;
36691;SDS011;22678;52.052;4.242;2024-02-14T05:04:05;8.15;;;4.82;;
36691;SDS011;22678;52.052;4.242;2024-02-14T05:06:33;19.23;;;3.78;;
36691;SDS011;22678;52.052;4.242;2024-02-14T05:08:58;20.15;;;3.53;;
36691;SDS011;22678;52.052;4.242;2024-02-14T05:11:24;23.85;;;3.30;;
36691;SDS011;22678;52.052;4.242;2024-02-14T05:13:49;20.38;;;4.32;;
36691;SDS011;22678;52.052;4.242;2024-02-14T05:16:18;17.85;;;3.20;;
36691;SDS011;22678;52.052;4.242;2024-02-14T05:18:44;15.48;;;4.75;;
36691;SDS011;22678;52.052;4.242;2024-02-14T05:21:10;15.07;;;3.30;;
36691;SDS011;22678;52.052;4.242;2024-02-14T05:23:35;11.23;;;4.63;;
36691;SDS011;22678;52.052;4.242;2024-02-14T05:26:01;14.48;;;5.93;;
36691;SDS011;22678;52.052;4.242;2024-02-14T05:28:30;25.58;;;4.05;;
36691;SDS011;22678;52.052;4.242;2024-02-14T05:30:56;23.10;;;4.60;;
36691;SDS011;22678;52.052;4.242;2024-02-14T05:33:22;14.80;;;4.85;;
36691;SDS011;22678;52.052;4.242;2024-02-14T05:35:48;24.48;;;4.15;;
36691;SDS011;22678;52.052;4.242;2024-02-14T05:38:14;18.02;;;6.90;;
36691;SDS011;22678;52.052;4.242;2024-02-14T05:40:39;11.88;;;5.05;;
36691;SDS011;22678;52.052;4.242;2024-02-14T05:43:05;25.48;;;6.78;;
36691;SDS011;22678;52.052;4.242;2024-02-14T05:45:32;34.08;;;6.32;;
36691;SDS011;22678;52.052;4.242;2024-02-14T05:47:57;21.48;;;6.95;;
36691;SDS011;22678;52.052;4.242;2024-02-14T05:50:23;20.10;;;6.72;;
36691;SDS011;22678;52.052;4.242;2024-02-14T05:52:48;49.60;;;8.20;;
36691;SDS011;22678;52.052;4.242;2024-02-14T05:55:14;25.45;;;8.05;;
36691;SDS011;22678;52.052;4.242;2024-02-14T05:57:40;18.35;;;5.32;;
36691;SDS011;22678;52.052;4.242;2024-02-14T06:00:05;16.13;;;6.22;;
36691;SDS011;22678;52.052;4.242;2024-02-14T06:02:31;23.00;;;6.22;;
36691;SDS011;22678;52.052;4.242;2024-02-14T06:04:56;21.13;;;5.28;;
36691;SDS011;22678;52.052;4.242;2024-02-14T06:07:22;10.25;;;3.60;;
36691;SDS011;22678;52.052;4.242;2024-02-14T06:09:47;20.98;;;5.30;;
36691;SDS011;22678;52.052;4.242;2024-02-14T06:12:12;22.20;;;4.88;;
36691;SDS011;22678;52.052;4.242;2024-02-14T06:14:38;29.50;;;5.93;;
36691;SDS011;22678;52.052;4.242;2024-02-14T06:17:03;13.43;;;3.70;;
36691;SDS011;22678;52.052;4.242;2024-02-14T06:19:28;25.95;;;6.82;;
36691;SDS011;22678;52.052;4.242;2024-02-14T06:21:55;30.30;;;9.18;;
36691;SDS011;22678;52.052;4.242;2024-02-14T06:24:20;17.70;;;6.38;;
36691;SDS011;22678;52.052;4.242;2024-02-14T06:26:46;32.42;;;11.32;;
36691;SDS011;22678;52.052;4.242;2024-02-14T06:29:11;22.50;;;7.30;;
36691;SDS011;22678;52.052;4.242;2024-02-14T06:31:37;17.33;;;6.50;;
36691;SDS011;22678;52.052;4.242;2024-02-14T06:34:02;32.60;;;8.00;;
36691;SDS011;22678;52.052;4.242;2024-02-14T06:36:27;16.50;;;6.82;;
36691;SDS011;22678;52.052;4.242;2024-02-14T06:38:53;23.00;;;8.82;;
36691;SDS011;22678;52.052;4.242;2024-02-14T06:41:18;19.25;;;7.15;;
36691;SDS011;22678;52.052;4.242;2024-02-14T06:43:45;19.25;;;8.77;;
36691;SDS011;22678;52.052;4.242;2024-02-14T06:46:10;18.67;;;6.45;;
36691;SDS011;22678;52.052;4.242;2024-02-14T06:48:36;21.98;;;7.68;;
36691;SDS011;22678;52.052;4.242;2024-02-14T06:51:01;18.75;;;4.93;;
36691;SDS011;22678;52.052;4.242;2024-02-14T06:53:27;14.15;;;6.40;;
36691;SDS011;22678;52.052;4.242;2024-02-14T06:55:52;21.08;;;6.15;;
36691;SDS011;22678;52.052;4.242;2024-02-14T06:58:17;19.85;;;6.95;;
36691;SDS011;22678;52.052;4.242;2024-02-14T07:00:43;18.92;;;6.75;;
36691;SDS011;22678;52.052;4.242;2024-02-14T07:03:09;19.90;;;6.53;;
36691;SDS011;22678;52.052;4.242;2024-02-14T07:05:34;20.13;;;6.90;;
36691;SDS011;22678;52.052;4.242;2024-02-14T07:08:00;24.38;;;6.65;;
36691;SDS011;22678;52.052;4.242;2024-02-14T07:10:26;32.75;;;8.77;;
36691;SDS011;22678;52.052;4.242;2024-02-14T07:12:52;24.00;;;5.78;;
36691;SDS011;22678;52.052;4.242;2024-02-14T07:15:17;27.63;;;6.68;;
36691;SDS011;22678;52.052;4.242;2024-02-14T07:17:42;18.52;;;6.25;;
36691;SDS011;22678;52.052;4.242;2024-02-14T07:20:08;17.88;;;6.28;;
36691;SDS011;22678;52.052;4.242;2024-02-14T07:22:34;15.80;;;5.28;;
36691;SDS011;22678;52.052;4.242;2024-02-14T07:25:00;16.63;;;4.70;;
36691;SDS011;22678;52.052;4.242;2024-02-14T07:27:26;19.42;;;4.32;;
36691;SDS011;22678;52.052;4.242;2024-02-14T07:29:52;15.93;;;5.47;;
36691;SDS011;22678;52.052;4.242;2024-02-14T07:32:17;20.20;;;6.20;;
36691;SDS011;22678;52.052;4.242;2024-02-14T07:34:43;15.63;;;6.15;;
36691;SDS011;22678;52.052;4.242;2024-02-14T07:37:08;22.50;;;4.43;;
36691;SDS011;22678;52.052;4.242;2024-02-14T07:39:34;22.00;;;6.13;;
36691;SDS011;22678;52.052;4.242;2024-02-14T07:42:02;23.08;;;5.63;;
36691;SDS011;22678;52.052;4.242;2024-02-14T07:44:28;12.15;;;4.60;;
36691;SDS011;22678;52.052;4.242;2024-02-14T07:46:53;16.58;;;3.88;;
36691;SDS011;22678;52.052;4.242;2024-02-14T07:49:19;12.07;;;3.95;;
36691;SDS011;22678;52.052;4.242;2024-02-14T07:51:44;13.75;;;3.38;;
36691;SDS011;22678;52.052;4.242;2024-02-14T07:54:10;10.95;;;3.05;;
36691;SDS011;22678;52.052;4.242;2024-02-14T07:56:35;17.23;;;5.82;;
36691;SDS011;22678;52.052;4.242;2024-02-14T07:59:01;15.13;;;4.93;;
36691;SDS011;22678;52.052;4.242;2024-02-14T08:01:26;9.38;;;6.25;;
36691;SDS011;22678;52.052;4.242;2024-02-14T08:03:52;12.05;;;5.60;;
36691;SDS011;22678;52.052;4.242;2024-02-14T08:06:17;15.93;;;4.15;;
36691;SDS011;22678;52.052;4.242;2024-02-14T08:08:42;11.75;;;4.45;;
36691;SDS011;22678;52.052;4.242;2024-02-14T08:11:09;17.13;;;4.95;;
36691;SDS011;22678;52.052;4.242;2024-02-14T08:13:34;12.73;;;5.85;;
36691;SDS011;22678;52.052;4.242;2024-02-14T08:16:00;15.55;;;6.72;;
36691;SDS011;22678;52.052;4.242;2024-02-14T08:18:25;15.15;;;6.07;;
36691;SDS011;22678;52.052;4.242;2024-02-14T08:20:52;16.85;;;6.65;;
36691;SDS011;22678;52.052;4.242;2024-02-14T08:23:18;14.55;;;7.38;;
36691;SDS011;22678;52.052;4.242;2024-02-14T08:25:44;20.23;;;5.40;;
36691;SDS011;22678;52.052;4.242;2024-02-14T08:28:10;11.30;;;6.32;;
36691;SDS011;22678;52.052;4.242;2024-02-14T08:30:36;14.30;;;7.32;;
36691;SDS011;22678;52.052;4.242;2024-02-14T08:33:02;11.82;;;6.43;;
36691;SDS011;22678;52.052;4.242;2024-02-14T08:35:28;13.23;;;6.35;;
36691;SDS011;22678;52.052;4.242;2024-02-14T08:37:53;11.55;;;6.78;;
36691;SDS011;22678;52.052;4.242;2024-02-14T08:40:19;12.45;;;7.18;;
36691;SDS011;22678;52.052;4.242;2024-02-14T08:42:45;22.30;;;8.35;;
36691;SDS011;22678;52.052;4.242;2024-02-14T08:45:10;12.55;;;7.03;;
36691;SDS011;22678;52.052;4.242;2024-02-14T08:47:35;10.30;;;6.90;;
36691;SDS011;22678;52.052;4.242;2024-02-14T08:50:01;16.45;;;8.13;;
36691;SDS011;22678;52.052;4.242;2024-02-14T08:52:28;13.98;;;7.93;;
36691;SDS011;22678;52.052;4.242;2024-02-14T08:54:54;16.48;;;8.90;;
36691;SDS011;22678;52.052;4.242;2024-02-14T08:57:19;13.93;;;7.90;;
36691;SDS011;22678;52.052;4.242;2024-02-14T08:59:44;12.80;;;6.55;;
36691;SDS011;22678;52.052;4.242;2024-02-14T09:02:12;12.77;;;6.97;;
36691;SDS011;22678;52.052;4.242;2024-02-14T09:04:38;18.17;;;6.88;;
36691;SDS011;22678;52.052;4.242;2024-02-14T09:07:04;12.00;;;6.78;;
36691;SDS011;22678;52.052;4.242;2024-02-14T09:09:29;11.05;;;6.05;;
36691;SDS011;22678;52.052;4.242;2024-02-14T09:11:56;12.68;;;6.63;;
36691;SDS011;22678;52.052;4.242;2024-02-14T09:14:21;11.77;;;6.80;;
36691;SDS011;22678;52.052;4.242;2024-02-14T09:16:48;8.43;;;4.07;;
36691;SDS011;22678;52.052;4.242;2024-02-14T09:19:13;9.15;;;4.45;;
36691;SDS011;22678;52.052;4.242;2024-02-14T09:21:38;5.72;;;3.53;;
36691;SDS011;22678;52.052;4.242;2024-02-14T09:24:04;8.82;;;4.03;;
36691;SDS011;22678;52.052;4.242;2024-02-14T09:26:30;6.65;;;3.13;;
36691;SDS011;22678;52.052;4.242;2024-02-14T09:28:55;7.60;;;3.83;;
36691;SDS011;22678;52.052;4.242;2024-02-14T09:31:21;7.78;;;4.75;;
36691;SDS011;22678;52.052;4.242;2024-02-14T09:33:47;5.97;;;3.65;;
36691;SDS011;22678;52.052;4.242;2024-02-14T09:36:13;7.30;;;4.72;;
36691;SDS011;22678;52.052;4.242;2024-02-14T09:38:42;7.85;;;4.10;;
36691;SDS011;22678;52.052;4.242;2024-02-14T09:41:12;6.53;;;3.30;;
36691;SDS011;22678;52.052;4.242;2024-02-14T09:43:47;7.03;;;4.13;;
36691;SDS011;22678;52.052;4.242;2024-02-14T09:46:15;9.40;;;3.65;;
36691;SDS011;22678;52.052;4.242;2024-02-14T09:48:43;11.02;;;5.13;;
36691;SDS011;22678;52.052;4.242;2024-02-14T09:51:12;10.25;;;3.63;;
36691;SDS011;22678;52.052;4.242;2024-02-14T09:53:41;8.18;;;4.30;;
36691;SDS011;22678;52.052;4.242;2024-02-14T09:56:09;8.75;;;4.03;;
36691;SDS011;22678;52.052;4.242;2024-02-14T09:58:35;7.70;;;3.35;;
36691;SDS011;22678;52.052;4.242;2024-02-14T10:01:01;7.93;;;4.25;;
36691;SDS011;22678;52.052;4.242;2024-02-14T10:03:28;7.72;;;3.67;;
36691;SDS011;22678;52.052;4.242;2024-02-14T10:05:53;5.63;;;3.88;;
36691;SDS011;22678;52.052;4.242;2024-02-14T10:08:19;4.97;;;3.40;;
36691;SDS011;22678;52.052;4.242;2024-02-14T10:10:46;4.57;;;2.15;;
36691;SDS011;22678;52.052;4.242;2024-02-14T10:13:11;8.18;;;3.55;;
36691;SDS011;22678;52.052;4.242;2024-02-14T10:15:37;5.93;;;3.03;;
36691;SDS011;22678;52.052;4.242;2024-02-14T10:18:02;3.40;;;2.00;;
36691;SDS011;22678;52.052;4.242;2024-02-14T10:20:28;4.40;;;1.85;;
36691;SDS011;22678;52.052;4.242;2024-02-14T10:23:02;3.53;;;1.63;;
36691;SDS011;22678;52.052;4.242;2024-02-14T10:25:28;2.85;;;1.40;;
36691;SDS011;22678;52.052;4.242;2024-02-14T10:27:54;3.30;;;1.40;;
36691;SDS011;22678;52.052;4.242;2024-02-14T10:30:20;2.50;;;1.02;;
36691;SDS011;22678;52.052;4.242;2024-02-14T10:32:46;2.70;;;1.17;;
36691;SDS011;22678;52.052;4.242;2024-02-14T10:35:15;4.78;;;2.13;;
36691;SDS011;22678;52.052;4.242;2024-02-14T10:37:41;7.53;;;4.38;;
36691;SDS011;22678;52.052;4.242;2024-02-14T10:40:07;4.88;;;2.90;;
36691;SDS011;22678;52.052;4.242;2024-02-14T10:42:34;5.07;;;2.75;;
36691;SDS011;22678;52.052;4.242;2024-02-14T10:45:03;4.55;;;2.83;;
36691;SDS011;22678;52.052;4.242;2024-02-14T10:47:34;9.63;;;3.15;;
36691;SDS011;22678;52.052;4.242;2024-02-14T10:50:01;4.25;;;2.85;;
36691;SDS011;22678;52.052;4.242;2024-02-14T10:52:36;6.85;;;3.63;;
36691;SDS011;22678;52.052;4.242;2024-02-14T10:55:06;4.70;;;2.85;;
36691;SDS011;22678;52.052;4.242;2024-02-14T10:57:32;4.60;;;2.78;;
36691;SDS011;22678;52.052;4.242;2024-02-14T11:00:02;4.75;;;2.47;;
36691;SDS011;22678;52.052;4.242;2024-02-14T11:02:32;7.30;;;3.40;;
36691;SDS011;22678;52.052;4.242;2024-02-14T11:04:58;5.93;;;3.55;;
36691;SDS011;22678;52.052;4.242;2024-02-14T11:07:27;4.32;;;2.55;;
36691;SDS011;22678;52.052;4.242;2024-02-14T11:10:00;4.25;;;2.47;;
36691;SDS011;22678;52.052;4.242;2024-02-14T11:12:33;4.35;;;2.22;;
36691;SDS011;22678;52.052;4.242;2024-02-14T11:15:01;4.22;;;1.92;;
36691;SDS011;22678;52.052;4.242;2024-02-14T11:19:59;4.97;;;2.85;;
36691;SDS011;22678;52.052;4.242;2024-02-14T11:22:24;3.72;;;1.73;;
36691;SDS011;22678;52.052;4.242;2024-02-14T11:24:51;3.22;;;2.40;;
36691;SDS011;22678;52.052;4.242;2024-02-14T11:27:18;6.00;;;2.67;;
36691;SDS011;22678;52.052;4.242;2024-02-14T11:29:53;6.25;;;1.83;;
36691;SDS011;22678;52.052;4.242;2024-02-14T11:32:18;3.65;;;2.35;;
36691;SDS011;22678;52.052;4.242;2024-02-14T11:34:53;4.90;;;1.98;;
36691;SDS011;22678;52.052;4.242;2024-02-14T11:37:20;3.80;;;1.90;;
36691;SDS011;22678;52.052;4.242;2024-02-14T11:39:51;3.60;;;1.30;;
36691;SDS011;22678;52.052;4.242;2024-02-14T11:42:17;3.05;;;1.45;;
36691;SDS011;22678;52.052;4.242;2024-02-14T11:44:43;2.72;;;1.42;;
36691;SDS011;22678;52.052;4.242;2024-02-14T11:47:11;4.15;;;1.73;;
36691;SDS011;22678;52.052;4.242;2024-02-14T11:49:36;4.47;;;1.73;;
36691;SDS011;22678;52.052;4.242;2024-02-14T11:52:04;6.10;;;1.73;;
36691;SDS011;22678;52.052;4.242;2024-02-14T11:54:29;5.00;;;2.22;;
36691;SDS011;22678;52.052;4.242;2024-02-14T11:56:55;5.25;;;2.45;;
36691;SDS011;22678;52.052;4.242;2024-02-14T11:59:20;4.00;;;2.33;;
36691;SDS011;22678;52.052;4.242;2024-02-14T12:01:48;3.88;;;2.05;;
36691;SDS011;22678;52.052;4.242;2024-02-14T12:04:16;5.13;;;2.30;;
36691;SDS011;22678;52.052;4.242;2024-02-14T12:06:42;5.85;;;2.13;;
36691;SDS011;22678;52.052;4.242;2024-02-14T12:09:08;3.85;;;1.60;;
36691;SDS011;22678;52.052;4.242;2024-02-14T12:11:38;3.90;;;1.90;;
36691;SDS011;22678;52.052;4.242;2024-02-14T12:14:06;3.67;;;1.80;;
36691;SDS011;22678;52.052;4.242;2024-02-14T12:16:33;6.20;;;1.88;;
36691;SDS011;22678;52.052;4.242;2024-02-14T12:19:08;4.10;;;1.60;;
36691;SDS011;22678;52.052;4.242;2024-02-14T12:21:40;2.97;;;1.30;;
36691;SDS011;22678;52.052;4.242;2024-02-14T12:24:08;4.72;;;2.22;;
36691;SDS011;22678;52.052;4.242;2024-02-14T12:26:35;4.90;;;2.78;;
36691;SDS011;22678;52.052;4.242;2024-02-14T12:29:02;6.65;;;3.80;;
36691;SDS011;22678;52.052;4.242;2024-02-14T12:31:29;4.35;;;1.70;;
36691;SDS011;22678;52.052;4.242;2024-02-14T12:33:56;5.07;;;2.75;;
36691;SDS011;22678;52.052;4.242;2024-02-14T12:36:26;8.93;;;2.55;;
36691;SDS011;22678;52.052;4.242;2024-02-14T12:38:53;6.85;;;1.80;;
36691;SDS011;22678;52.052;4.242;2024-02-14T12:41:19;5.68;;;2.35;;
36691;SDS011;22678;52.052;4.242;2024-02-14T12:43:44;7.45;;;2.45;;
36691;SDS011;22678;52.052;4.242;2024-02-14T12:46:09;3.75;;;2.05;;
36691;SDS011;22678;52.052;4.242;2024-02-14T12:48:35;10.13;;;3.58;;
36691;SDS011;22678;52.052;4.242;2024-02-14T12:51:00;5.60;;;2.95;;
36691;SDS011;22678;52.052;4.242;2024-02-14T12:53:25;7.40;;;3.67;;
36691;SDS011;22678;52.052;4.242;2024-02-14T12:55:51;6.18;;;2.80;;
36691;SDS011;22678;52.052;4.242;2024-02-14T12:58:17;6.45;;;3.22;;
36691;SDS011;22678;52.052;4.242;2024-02-14T13:00:42;7.22;;;2.97;;
36691;SDS011;22678;52.052;4.242;2024-02-14T13:03:09;10.13;;;3.28;;
36691;SDS011;22678;52.052;4.242;2024-02-14T13:05:35;10.45;;;4.10;;
36691;SDS011;22678;52.052;4.242;2024-02-14T13:08:01;7.55;;;2.83;;
36691;SDS011;22678;52.052;4.242;2024-02-14T13:10:27;4.03;;;2.08;;
36691;SDS011;22678;52.052;4.242;2024-02-14T13:12:52;7.43;;;2.03;;
36691;SDS011;22678;52.052;4.242;2024-02-14T13:15:18;7.68;;;2.35;;
36691;SDS011;22678;52.052;4.242;2024-02-14T13:17:43;3.95;;;1.85;;
36691;SDS011;22678;52.052;4.242;2024-02-14T13:20:10;5.35;;;2.40;;
36691;SDS011;22678;52.052;4.242;2024-02-14T13:22:36;7.75;;;2.35;;
36691;SDS011;22678;52.052;4.242;2024-02-14T13:25:01;5.15;;;1.40;;
36691;SDS011;22678;52.052;4.242;2024-02-14T13:27:28;1.48;;;0.68;;
36691;SDS011;22678;52.052;4.242;2024-02-14T13:29:53;1.13;;;0.45;;
36691;SDS011;22678;52.052;4.242;2024-02-14T13:32:18;6.93;;;0.70;;
36691;SDS011;22678;52.052;4.242;2024-02-14T13:34:44;3.78;;;0.75;;
36691;SDS011;22678;52.052;4.242;2024-02-14T13:37:09;3.90;;;2.67;;
36691;SDS011;22678;52.052;4.242;2024-02-14T13:39:35;1.98;;;0.85;;
36691;SDS011;22678;52.052;4.242;2024-02-14T13:42:00;1.08;;;0.40;;
36691;SDS011;22678;52.052;4.242;2024-02-14T13:44:26;1.67;;;0.40;;
36691;SDS011;22678;52.052;4.242;2024-02-14T13:46:52;2.20;;;0.40;;
36691;SDS011;22678;52.052;4.242;2024-02-14T13:49:19;2.25;;;0.30;;
36691;SDS011;22678;52.052;4.242;2024-02-14T13:51:51;1.65;;;0.35;;
36691;SDS011;22678;52.052;4.242;2024-02-14T13:54:20;0.40;;;0.30;;
36691;SDS011;22678;52.052;4.242;2024-02-14T13:56:46;6.78;;;0.65;;
36691;SDS011;22678;52.052;4.242;2024-02-14T13:59:13;3.25;;;0.57;;
36691;SDS011;22678;52.052;4.242;2024-02-14T14:01:39;2.13;;;0.30;;
36691;SDS011;22678;52.052;4.242;2024-02-14T14:04:06;4.07;;;0.40;;
36691;SDS011;22678;52.052;4.242;2024-02-14T14:06:32;4.28;;;0.50;;
36691;SDS011;22678;52.052;4.242;2024-02-14T14:08:57;2.42;;;0.43;;
36691;SDS011;22678;52.052;4.242;2024-02-14T14:11:24;0.93;;;0.25;;
36691;SDS011;22678;52.052;4.242;2024-02-14T14:13:49;3.50;;;0.20;;
36691;SDS011;22678;52.052;4.242;2024-02-14T14:16:15;3.58;;;0.85;;
36691;SDS011;22678;52.052;4.242;2024-02-14T14:18:40;2.85;;;0.60;;
36691;SDS011;22678;52.052;4.242;2024-02-14T14:21:06;6.15;;;0.80;;
36691;SDS011;22678;52.052;4.242;2024-02-14T14:23:31;5.55;;;1.35;;
36691;SDS011;22678;52.052;4.242;2024-02-14T14:25:57;5.75;;;1.08;;
36691;SDS011;22678;52.052;4.242;2024-02-14T14:28:23;6.03;;;1.35;;
36691;SDS011;22678;52.052;4.242;2024-02-14T14:30:58;7.28;;;0.52;;
36691;SDS011;22678;52.052;4.242;2024-02-14T14:33:26;5.38;;;1.42;;
36691;SDS011;22678;52.052;4.242;2024-02-14T14:35:52;5.25;;;0.65;;
36691;SDS011;22678;52.052;4.242;2024-02-14T14:38:18;7.32;;;0.50;;